Time;durP1;ratioP1;P1;durP2;ratioP2;P2;SDS_P1;SDS_P2;PMS_P1;PMS_P2;Temp;Humidity;BMP_temperature;BMP_pressure;BME280_temperature;BME280_humidity;BME280_pressure;Samples;Min_cycle;Max_cycle;Signal;HPM_P1;HPM_P2
2022/03/17 00:02:16;;;;;;;12.27;7.90;;;;;;;16.47;36.00;94124.38;4899272;29;20478;-91
2022/03/17 00:04:41;;;;;;;7.88;6.85;;;;;;;16.48;35.92;94127.88;4905173;29;20069;-91
2022/03/17 00:07:07;;;;;;;10.43;7.60;;;;;;;16.46;36.02;94131.81;4936168;29;20043;-91
2022/03/17 00:09:32;;;;;;;10.27;7.07;;;;;;;16.46;36.00;94125.63;4921021;29;20120;-91
2022/03/17 00:11:57;;;;;;;9.02;6.60;;;;;;;16.46;35.90;94123.63;4921205;29;20039;-91
2022/03/17 00:14:24;;;;;;;10.10;7.15;;;;;;;16.46;35.84;94117.41;4904475;29;20055;-91
2022/03/17 00:16:49;;;;;;;10.18;7.55;;;;;;;16.45;35.81;94124.13;4919592;29;20122;-91
2022/03/17 00:19:15;;;;;;;9.82;7.18;;;;;;;16.46;35.94;94118.16;4904331;29;20059;-93
2022/03/17 00:21:40;;;;;;;10.60;7.15;;;;;;;16.45;35.99;94102.31;4905413;29;20036;-94
2022/03/17 00:24:09;;;;;;;9.77;7.22;;;;;;;16.44;36.02;94090.63;4904431;29;20099;-92
2022/03/17 00:26:35;;;;;;;10.27;7.05;;;;;;;16.44;35.90;94093.38;4905278;29;20050;-92
2022/03/17 00:29:07;;;;;;;9.75;7.30;;;;;;;16.44;35.82;94092.63;4904867;29;20039;-91
2022/03/17 00:31:34;;;;;;;9.65;6.78;;;;;;;16.42;35.92;94076.72;4905341;29;20508;-91
2022/03/17 00:33:59;;;;;;;9.48;6.72;;;;;;;16.43;36.08;94085.66;4920671;29;20568;-94
2022/03/17 00:36:25;;;;;;;9.82;6.85;;;;;;;16.43;36.21;94080.97;4935451;29;20051;-93
2022/03/17 00:38:50;;;;;;;9.25;6.63;;;;;;;16.43;35.95;94089.13;4920421;29;20102;-92
2022/03/17 00:41:16;;;;;;;9.82;6.70;;;;;;;16.42;35.87;94082.19;4900873;29;20036;-91
2022/03/17 00:43:41;;;;;;;7.22;5.90;;;;;;;16.44;36.14;94084.44;4906418;29;20047;-92
2022/03/17 00:46:07;;;;;;;8.93;6.68;;;;;;;16.42;35.79;94079.47;4939244;29;20489;-91
2022/03/17 00:48:32;;;;;;;9.50;6.75;;;;;;;16.43;36.01;94085.66;4904053;29;20046;-92
2022/03/17 00:50:58;;;;;;;8.48;6.78;;;;;;;16.43;35.91;94088.38;4904630;29;20035;-91
2022/03/17 00:53:23;;;;;;;11.95;7.68;;;;;;;16.43;36.11;94085.66;4904384;29;20474;-94
2022/03/17 00:55:48;;;;;;;9.65;6.82;;;;;;;16.42;35.86;94073.25;4904678;29;20039;-92
2022/03/17 00:58:14;;;;;;;9.80;6.57;;;;;;;16.41;35.76;94074.47;4903536;29;20035;-92
2022/03/17 01:00:40;;;;;;;8.25;6.30;;;;;;;16.42;35.76;94076.72;4904329;29;20520;-91
2022/03/17 01:03:05;;;;;;;8.82;6.45;;;;;;;16.41;36.09;94071.75;4934758;29;20047;-93
2022/03/17 01:05:30;;;;;;;8.98;6.45;;;;;;;16.41;35.52;94074.47;4904034;29;20552;-93
2022/03/17 01:07:56;;;;;;;9.25;6.35;;;;;;;16.41;35.72;94071.75;4903665;29;20035;-92
2022/03/17 01:10:22;;;;;;;8.80;6.40;;;;;;;16.41;35.84;94077.22;4919618;29;20055;-94
2022/03/17 01:12:48;;;;;;;9.77;7.30;;;;;;;16.41;36.04;94066.28;4919993;29;20044;-91
2022/03/17 01:15:14;;;;;;;9.52;6.90;;;;;;;16.41;35.88;94069.03;4903361;29;20341;-91
2022/03/17 01:17:40;;;;;;;10.52;7.10;;;;;;;16.41;35.59;94063.56;4919388;29;20059;-91
2022/03/17 01:20:06;;;;;;;8.65;6.30;;;;;;;16.41;35.97;94067.03;4919392;29;20047;-91
2022/03/17 01:22:32;;;;;;;7.45;5.60;;;;;;;16.39;35.88;94061.31;4903814;29;20125;-92
2022/03/17 01:24:57;;;;;;;8.93;6.43;;;;;;;16.41;36.12;94052.66;4935564;29;20054;-94
2022/03/17 01:27:23;;;;;;;8.10;6.03;;;;;;;16.38;35.64;94059.81;4903036;29;20457;-91
2022/03/17 01:29:51;;;;;;;7.32;5.57;;;;;;;16.39;35.69;94055.84;4903734;29;20452;-91
2022/03/17 01:32:17;;;;;;;8.70;5.85;;;;;;;16.39;36.16;94066.78;4903319;29;20050;-92
2022/03/17 01:34:42;;;;;;;8.43;6.53;;;;;;;16.39;35.90;94061.31;4951449;28;20039;-92
2022/03/17 01:37:08;;;;;;;9.02;6.25;;;;;;;16.38;35.94;94054.34;4921911;28;20503;-93
2022/03/17 01:39:33;;;;;;;8.30;6.30;;;;;;;16.38;35.84;94062.53;4919048;29;20517;-91
2022/03/17 01:41:59;;;;;;;9.77;6.55;;;;;;;16.39;35.80;94052.38;4903742;29;20039;-92
2022/03/17 01:44:24;;;;;;;7.68;6.13;;;;;;;16.39;35.56;94053.13;4902175;29;20482;-93
2022/03/17 01:49:37;;;;;;;7.45;5.75;;;;;;;16.37;36.18;94044.66;4923819;29;20182;-93
2022/03/17 01:52:03;;;;;;;7.32;5.55;;;;;;;16.37;35.80;94047.41;4919045;29;20035;-91
2022/03/17 01:54:29;;;;;;;10.07;6.40;;;;;;;16.37;35.92;94044.66;4918690;29;20485;-91
2022/03/17 01:56:54;;;;;;;8.55;6.30;;;;;;;16.37;35.81;94041.19;4903590;29;20055;-91
2022/03/17 01:59:21;;;;;;;8.95;6.10;;;;;;;16.37;35.94;94038.47;4918077;29;20039;-91
2022/03/17 02:01:47;;;;;;;7.45;5.65;;;;;;;16.36;36.29;94031.50;4903552;29;20186;-91
2022/03/17 02:04:12;;;;;;;7.47;5.60;;;;;;;16.35;36.00;94038.94;4918264;29;20043;-93
2022/03/17 02:06:38;;;;;;;7.68;5.97;;;;;;;16.37;35.96;94041.19;4918452;29;20042;-91
2022/03/17 02:09:03;;;;;;;7.97;5.30;;;;;;;16.36;35.75;94035.00;4917743;29;20074;-91
2022/03/17 02:14:22;;;;;;;9.23;6.00;;;;;;;16.35;35.74;94051.84;4923357;29;20368;-91
2022/03/17 02:16:51;;;;;;;8.77;6.18;;;;;;;16.36;35.81;94048.63;4903444;29;20046;-91
2022/03/17 02:19:17;;;;;;;8.18;6.22;;;;;;;16.35;36.12;94054.56;4917692;29;20039;-92
2022/03/17 02:21:44;;;;;;;8.50;5.93;;;;;;;16.35;35.54;94060.03;4934449;29;20071;-92
2022/03/17 02:26:55;;;;;;;7.45;5.05;;;;;;;16.35;35.67;94052.59;4937491;29;20163;-91
2022/03/17 02:29:20;;;;;;;7.78;5.93;;;;;;;16.32;35.67;94042.63;4901983;29;20039;-92
2022/03/17 02:31:45;;;;;;;9.27;5.93;;;;;;;16.34;35.73;94048.34;4918525;29;20404;-91
2022/03/17 02:34:11;;;;;;;7.68;5.72;;;;;;;16.34;35.86;94032.00;4924575;29;20031;-91
2022/03/17 02:36:45;;;;;;;7.13;5.45;;;;;;;16.34;35.68;94042.16;4918017;29;20032;-91
2022/03/17 02:39:11;;;;;;;7.07;5.38;;;;;;;16.34;35.93;94031.25;4905049;28;20027;-92
2022/03/17 02:41:36;;;;;;;8.70;6.13;;;;;;;16.33;35.66;94041.41;4921460;28;20053;-91
2022/03/17 02:44:05;;;;;;;8.57;6.00;;;;;;;16.34;36.01;94042.91;4917985;28;20050;-91
2022/03/17 02:46:30;;;;;;;8.00;5.50;;;;;;;16.33;35.63;94037.94;4922111;28;20061;-93
2022/03/17 02:48:55;;;;;;;7.88;6.03;;;;;;;16.32;35.79;94037.19;4937285;28;20409;-92
2022/03/17 02:51:21;;;;;;;8.85;6.25;;;;;;;16.32;35.82;94036.44;4936721;28;20038;-91
2022/03/17 02:53:46;;;;;;;8.63;5.72;;;;;;;16.32;35.83;94029.00;4938540;28;20066;-91
2022/03/17 02:56:12;;;;;;;6.88;5.60;;;;;;;16.34;35.69;94029.25;4940370;28;20533;-91
2022/03/17 02:58:37;;;;;;;7.85;5.35;;;;;;;16.32;35.69;94025.50;4956951;28;20097;-94
2022/03/17 03:01:03;;;;;;;7.70;5.47;;;;;;;16.33;35.68;94032.47;4956687;28;20049;-91
2022/03/17 03:03:28;;;;;;;7.22;5.35;;;;;;;16.32;35.83;94028.25;4940870;28;20615;-91
2022/03/17 03:05:54;;;;;;;6.78;5.30;;;;;;;16.31;35.92;94027.50;4941352;28;20276;-91
2022/03/17 03:08:19;;;;;;;5.93;5.07;;;;;;;16.32;35.81;94023.53;4924535;28;20046;-91
2022/03/17 03:10:44;;;;;;;7.03;5.65;;;;;;;16.32;35.63;94028.25;4940461;28;20066;-94
2022/03/17 03:13:10;;;;;;;7.72;5.70;;;;;;;16.29;35.70;94019.03;4956331;28;20038;-91
2022/03/17 03:15:36;;;;;;;9.23;5.82;;;;;;;16.31;35.84;94021.28;4941501;28;20050;-92
2022/03/17 03:18:02;;;;;;;8.50;6.00;;;;;;;16.31;35.42;94027.50;4925202;28;20544;-91
2022/03/17 03:20:27;;;;;;;7.65;5.28;;;;;;;16.30;35.88;94036.16;4924346;28;20059;-91
2022/03/17 03:22:52;;;;;;;8.30;5.78;;;;;;;16.31;35.89;94027.50;4941243;28;20043;-92
2022/03/17 03:25:18;;;;;;;8.48;6.30;;;;;;;16.29;36.03;94021.75;4924186;28;20383;-92
2022/03/17 03:27:44;;;;;;;7.88;6.00;;;;;;;16.31;35.53;94030.22;4957067;28;20038;-91
2022/03/17 03:30:12;;;;;;;8.80;6.07;;;;;;;16.30;35.63;94025.25;4939966;28;20092;-91
2022/03/17 03:32:39;;;;;;;8.75;6.07;;;;;;;16.28;35.58;94022.25;4925040;28;20035;-92
2022/03/17 03:37:22;;;;;;;8.13;5.30;;;;;;;16.28;35.64;94017.53;4924288;28;20042;-91
2022/03/17 03:37:50;;;;;;;7.57;5.32;;;;;;;16.28;35.62;94025.72;4945963;28;20102;-91
2022/03/17 03:40:15;;;;;;;7.70;5.38;;;;;;;16.28;35.65;94017.53;4955722;28;20043;-94
2022/03/17 03:42:41;;;;;;;8.27;5.70;;;;;;;16.29;35.58;94027.22;4940322;28;20456;-92
2022/03/17 03:45:07;;;;;;;7.68;5.43;;;;;;;16.30;36.03;94022.50;4936342;29;20494;-91
2022/03/17 03:47:32;;;;;;;7.07;5.57;;;;;;;16.30;35.80;94022.50;4902400;29;20042;-91
2022/03/17 03:49:57;;;;;;;7.75;5.60;;;;;;;16.28;35.98;94027.69;4886731;29;20047;-93
2022/03/17 03:52:23;;;;;;;9.38;5.50;;;;;;;16.28;35.76;94030.44;4886491;29;20042;-93
2022/03/17 03:54:48;;;;;;;9.13;6.07;;;;;;;16.28;35.68;94028.44;4886704;29;20043;-91
2022/03/17 03:57:14;;;;;;;7.30;5.40;;;;;;;16.29;35.85;94015.56;4886057;29;20490;-93
2022/03/17 03:59:39;;;;;;;7.57;5.40;;;;;;;16.29;35.58;94021.75;4886818;29;20040;-91
2022/03/17 04:02:06;;;;;;;7.97;5.70;;;;;;;16.30;35.65;94019.78;4886055;29;20035;-90
2022/03/17 04:04:34;;;;;;;9.25;5.22;;;;;;;16.28;35.62;94009.34;4886017;29;20521;-91
2022/03/17 04:07:01;;;;;;;6.93;5.25;;;;;;;16.28;35.38;94019.53;4901701;29;20042;-91
2022/03/17 04:09:30;;;;;;;8.48;5.35;;;;;;;16.27;35.73;94012.56;4885889;29;20118;-91
2022/03/17 04:11:56;;;;;;;7.43;5.70;;;;;;;16.29;35.80;94018.28;4886200;29;20494;-93
2022/03/17 04:14:21;;;;;;;7.10;5.28;;;;;;;16.29;35.76;94021.00;4885880;29;20051;-93
2022/03/17 04:16:47;;;;;;;6.45;4.65;;;;;;;16.27;35.72;94018.78;4901779;29;20050;-91
2022/03/17 04:19:12;;;;;;;6.60;4.85;;;;;;;16.28;35.54;94023.00;4935877;29;20044;-91
2022/03/17 04:21:38;;;;;;;7.05;5.38;;;;;;;16.27;35.79;94020.75;4920789;29;20044;-92
2022/03/17 04:24:04;;;;;;;7.80;5.95;;;;;;;16.27;35.55;94018.78;4936022;29;20490;-91
2022/03/17 04:26:29;;;;;;;6.68;5.28;;;;;;;16.26;35.79;94013.78;4920276;29;20043;-93
2022/03/17 04:28:55;;;;;;;7.40;5.38;;;;;;;16.27;35.80;94009.84;4920917;29;20114;-91
2022/03/17 04:31:23;;;;;;;7.65;5.22;;;;;;;16.26;35.52;94022.72;4919854;29;20045;-91
2022/03/17 04:33:49;;;;;;;6.45;4.72;;;;;;;16.26;35.83;94013.78;4915974;29;20032;-91
2022/03/17 04:36:15;;;;;;;5.97;4.95;;;;;;;16.26;35.85;94017.28;4916744;29;20558;-92
2022/03/17 04:38:41;;;;;;;6.75;5.13;;;;;;;16.28;35.96;94014.06;4901878;29;20036;-91
2022/03/17 04:41:06;;;;;;;7.15;5.53;;;;;;;16.28;35.95;94008.59;4899790;29;20039;-91
2022/03/17 04:43:32;;;;;;;6.93;5.00;;;;;;;16.27;35.88;94010.59;4885651;29;20044;-92
2022/03/17 04:45:58;;;;;;;6.40;5.03;;;;;;;16.27;36.08;94018.78;4921926;29;20077;-91
2022/03/17 04:48:23;;;;;;;7.03;5.15;;;;;;;16.26;35.53;94019.25;4920047;29;20043;-93
2022/03/17 04:50:48;;;;;;;7.38;5.40;;;;;;;16.25;35.70;94021.22;4919918;29;20063;-92
2022/03/17 04:56:14;;;;;;;6.28;4.35;;;;;;;16.26;35.65;94025.47;4946933;28;20450;-91
2022/03/17 04:58:42;;;;;;;8.30;5.45;;;;;;;16.25;35.83;94025.94;4930104;28;20047;-92
2022/03/17 05:01:23;;;;;;;6.10;4.68;;;;;;;16.27;35.66;94020.75;4944230;28;20034;-91
2022/03/17 05:03:56;;;;;;;;;;;;;;;16.31;35.70;94029.47;4977753;28;20061;-94
2022/03/17 05:06:22;;;;;;;7.57;4.80;;;;;;;16.25;35.51;94021.22;4955980;28;19918;-92
2022/03/17 05:08:48;;;;;;;7.00;5.18;;;;;;;16.24;35.57;94030.63;4916312;29;20047;-90
2022/03/17 05:11:13;;;;;;;7.28;5.50;;;;;;;16.24;35.77;94032.66;4907312;28;20039;-93
2022/03/17 05:13:39;;;;;;;6.20;4.85;;;;;;;16.23;35.83;94033.88;4924553;28;20043;-94
2022/03/17 05:16:05;;;;;;;6.18;4.40;;;;;;;16.24;35.63;94038.81;4939189;28;20050;-90
2022/03/17 05:18:31;;;;;;;7.63;5.40;;;;;;;16.27;35.43;94035.13;4958450;28;20042;-92
2022/03/17 05:20:57;;;;;;;7.38;4.65;;;;;;;16.25;35.75;94032.13;4938684;28;20053;-94
2022/03/17 05:23:24;;;;;;;12.68;5.50;;;;;;;16.26;35.60;94035.63;4943943;28;20046;-93
2022/03/17 05:25:50;;;;;;;6.32;4.65;;;;;;;16.29;35.54;94037.38;4957393;28;20039;-91
2022/03/17 05:28:17;;;;;;;7.22;5.00;;;;;;;16.28;35.94;94036.63;4957453;28;20284;-93
2022/03/17 05:30:43;;;;;;;13.57;7.03;;;;;;;16.33;35.55;94029.75;4956786;28;20062;-95
2022/03/17 05:33:40;;;;;;;10.77;6.90;;;;;;;16.31;35.43;94034.94;4901443;29;20036;-95
2022/03/17 05:36:06;;;;;;;19.67;13.38;;;;;;;16.30;35.49;94038.88;4814733;29;20505;-90
2022/03/17 05:38:32;;;;;;;14.00;9.00;;;;;;;16.34;36.02;94031.25;4850641;29;20045;-91
2022/03/17 05:41:00;;;;;;;20.58;14.75;;;;;;;16.42;35.81;94037.78;4811816;29;20038;-91
2022/03/17 05:43:29;;;;;;;16.05;8.93;;;;;;;16.44;35.56;94038.03;4811026;29;20053;-95
2022/03/17 05:45:54;;;;;;;12.05;7.97;;;;;;;16.41;35.73;94039.00;4809484;29;20041;-91
2022/03/17 05:48:19;;;;;;;22.95;11.00;;;;;;;16.44;35.54;94043.50;4837683;29;20527;-91
2022/03/17 05:50:45;;;;;;;17.48;11.20;;;;;;;16.46;35.77;94051.94;4821633;29;20053;-89
2022/03/17 05:53:10;;;;;;;24.75;12.18;;;;;;;16.43;35.44;94044.72;4834274;29;20568;-91
2022/03/17 05:55:46;;;;;;;15.35;9.95;;;;;;;16.41;35.32;94047.94;4803903;29;20475;-93
2022/03/17 05:58:20;;;;;;;23.90;9.93;;;;;;;16.44;35.70;94043.50;4828698;29;20084;-92
2022/03/17 06:00:57;;;;;;;21.95;10.48;;;;;;;16.41;35.88;94058.09;4824682;29;20056;-95
2022/03/17 06:03:46;;;;;;;43.72;20.45;;;;;;;16.30;34.50;94057.97;4813930;29;20099;-95
2022/03/17 06:08:47;;;;;;;40.90;19.60;;;;;;;16.07;32.33;94065.19;4929329;28;20048;-91
2022/03/17 06:11:13;;;;;;;38.97;19.60;;;;;;;15.98;32.31;94066.09;4900077;29;20104;-91
2022/03/17 06:13:38;;;;;;;42.72;19.95;;;;;;;16.04;31.71;94072.34;4890359;29;20055;-92
2022/03/17 06:16:06;;;;;;;44.03;22.60;;;;;;;15.96;31.64;94073.25;4894224;29;20482;-92
2022/03/17 06:18:32;;;;;;;47.75;23.83;;;;;;;15.89;31.51;94068.97;4885542;29;20044;-92
2022/03/17 06:20:57;;;;;;;71.28;27.08;;;;;;;15.83;31.09;94070.84;4887865;29;20452;-92
2022/03/17 06:23:23;;;;;;;229.25;69.80;;;;;;;15.83;31.04;94075.56;4892785;29;20040;-92
2022/03/17 06:25:48;;;;;;;172.07;48.70;;;;;;;15.81;31.41;94072.56;4880549;29;20063;-92
2022/03/17 06:28:15;;;;;;;143.00;44.45;;;;;;;15.81;31.46;94078.00;4896193;29;20605;-91
2022/03/17 06:30:42;;;;;;;183.02;50.80;;;;;;;15.76;31.34;94085.66;4899568;29;20058;-92
2022/03/17 06:33:07;;;;;;;171.50;42.53;;;;;;;15.70;31.37;94089.53;4884531;29;20039;-92
2022/03/17 06:35:33;;;;;;;148.93;39.45;;;;;;;15.74;31.44;94079.19;4894724;29;20156;-90
2022/03/17 06:38:00;;;;;;;110.10;35.65;;;;;;;15.71;31.56;94080.13;4895850;29;20055;-92
2022/03/17 06:40:26;;;;;;;94.30;32.78;;;;;;;15.71;31.32;94082.88;4884074;29;20054;-90
2022/03/17 06:42:53;;;;;;;81.82;30.67;;;;;;;15.71;31.21;94082.88;4879649;29;20260;-92
2022/03/17 06:45:18;;;;;;;166.40;46.42;;;;;;;15.76;32.38;94074.75;4899501;29;20047;-93
2022/03/17 06:47:45;;;;;;;142.75;42.42;;;;;;;15.72;32.25;94073.47;4884349;29;20625;-91
2022/03/17 06:50:11;;;;;;;104.88;36.08;;;;;;;15.71;32.10;94077.41;4899654;29;20040;-93
2022/03/17 06:52:37;;;;;;;123.10;39.63;;;;;;;15.80;32.28;94082.75;4877629;29;20118;-93
2022/03/17 06:55:02;;;;;;;151.57;49.67;;;;;;;15.76;31.95;94077.50;4895140;29;20226;-93
2022/03/17 06:57:28;;;;;;;232.27;71.45;;;;;;;15.80;32.08;94073.81;4882609;29;20102;-91
2022/03/17 06:59:53;;;;;;;182.20;59.15;;;;;;;15.81;33.37;94076.03;4889612;29;20035;-92
2022/03/17 07:02:19;;;;;;;172.40;58.63;;;;;;;15.84;32.41;94075.09;4886768;29;20048;-93
2022/03/17 07:04:44;;;;;;;145.93;56.38;;;;;;;15.88;32.92;94072.91;4893337;29;20044;-92
2022/03/17 07:07:10;;;;;;;119.90;49.67;;;;;;;15.85;31.71;94073.84;4894091;29;20409;-92
2022/03/17 07:09:36;;;;;;;82.80;41.95;;;;;;;15.80;33.21;94077.28;4894041;29;20120;-91
2022/03/17 07:12:03;;;;;;;367.38;260.05;;;;;;;15.88;32.36;94077.63;4923117;29;20032;-93
2022/03/17 07:14:30;;;;;;;205.80;117.32;;;;;;;15.88;32.82;94075.63;4904838;29;20047;-93
2022/03/17 07:16:56;;;;;;;104.97;48.25;;;;;;;15.96;32.40;94075.97;4893954;29;20035;-94
2022/03/17 07:19:22;;;;;;;93.78;45.53;;;;;;;16.03;32.23;94083.72;4891209;29;24792;-93
2022/03/17 07:21:48;;;;;;;128.00;57.08;;;;;;;16.10;32.07;94080.59;4837101;29;20049;-93
2022/03/17 07:24:16;;;;;;;123.93;59.58;;;;;;;16.13;33.68;94087.81;4882284;29;20064;-91
2022/03/17 07:26:43;;;;;;;128.20;63.30;;;;;;;16.11;32.09;94079.38;4865742;29;20037;-92
2022/03/17 07:29:10;;;;;;;139.75;67.57;;;;;;;16.11;32.17;94082.09;4847199;29;20236;-94
2022/03/17 07:31:36;;;;;;;122.63;61.08;;;;;;;16.14;32.25;94091.31;4873336;29;20079;-92
2022/03/17 07:34:01;;;;;;;122.82;62.80;;;;;;;16.13;32.56;94085.09;4865921;29;20041;-94
2022/03/17 07:36:28;;;;;;;111.70;59.15;;;;;;;16.13;32.66;94085.09;4880403;29;20416;-93
2022/03/17 07:38:55;;;;;;;112.82;57.15;;;;;;;16.13;32.80;94082.38;4860581;29;20052;-92
2022/03/17 07:41:21;;;;;;;111.88;56.00;;;;;;;16.14;32.52;94085.84;4856964;29;20048;-94
2022/03/17 07:43:47;;;;;;;147.45;67.88;;;;;;;16.16;32.45;94086.88;4865811;29;20060;-92
2022/03/17 07:46:12;;;;;;;118.57;62.35;;;;;;;16.14;32.44;94078.41;4860142;29;20049;-92
2022/03/17 07:48:38;;;;;;;117.70;63.33;;;;;;;16.17;32.37;94084.88;4867681;29;20044;-92
2022/03/17 07:51:03;;;;;;;151.93;67.28;;;;;;;16.18;32.45;94083.66;4874778;29;20044;-92
2022/03/17 07:53:29;;;;;;;136.00;68.30;;;;;;;16.16;32.83;94077.94;4840097;29;20084;-93
2022/03/17 07:55:55;;;;;;;119.93;58.75;;;;;;;16.19;32.21;94079.72;4829692;29;20041;-92
2022/03/17 07:58:23;;;;;;;130.38;62.15;;;;;;;16.20;32.64;94079.22;4820169;29;20104;-92
2022/03/17 08:00:49;;;;;;;133.40;62.28;;;;;;;16.21;32.79;94078.00;4853438;29;20065;-92
2022/03/17 08:03:15;;;;;;;165.63;70.63;;;;;;;16.24;32.82;94076.28;4868601;29;20051;-91
2022/03/17 08:05:40;;;;;;;145.50;61.85;;;;;;;16.23;32.86;94078.28;4865796;29;20491;-91
2022/03/17 08:08:05;;;;;;;126.70;55.92;;;;;;;16.24;32.49;94081.75;4861643;29;20476;-90
2022/03/17 08:10:31;;;;;;;113.68;54.75;;;;;;;16.25;32.69;94086.69;4878312;29;20052;-93
2022/03/17 08:12:56;;;;;;;135.90;57.30;;;;;;;16.30;32.57;94093.44;4873089;29;20053;-90
2022/03/17 08:15:22;;;;;;;119.65;54.22;;;;;;;16.27;33.00;94086.97;4858665;29;20057;-90
2022/03/17 08:17:48;;;;;;;124.57;55.97;;;;;;;16.27;32.72;94086.22;4851043;29;20040;-93
2022/03/17 08:20:13;;;;;;;148.13;56.08;;;;;;;16.28;32.72;94088.47;4879681;29;20055;-91
2022/03/17 08:22:40;;;;;;;122.35;52.67;;;;;;;16.27;32.96;94094.41;4879079;29;20041;-89
2022/03/17 08:25:06;;;;;;;135.88;54.33;;;;;;;16.32;32.72;94088.25;4868821;29;20074;-91
2022/03/17 08:27:31;;;;;;;113.53;52.67;;;;;;;16.32;32.87;94091.75;4876831;29;20041;-90
2022/03/17 08:29:57;;;;;;;103.35;47.50;;;;;;;16.32;33.04;94091.75;4829450;29;20147;-92
2022/03/17 08:32:22;;;;;;;102.57;49.28;;;;;;;16.34;33.16;94092.00;4854377;29;20037;-92
2022/03/17 08:34:48;;;;;;;102.22;47.53;;;;;;;16.35;33.11;94090.03;4868882;29;20051;-92
2022/03/17 08:37:14;;;;;;;111.65;49.28;;;;;;;16.35;33.49;94090.03;4882965;29;20036;-91
2022/03/17 08:39:40;;;;;;;104.90;51.08;;;;;;;16.35;33.08;94090.78;4874295;29;20407;-91
2022/03/17 08:42:05;;;;;;;108.78;49.97;;;;;;;16.35;32.79;94092.75;4888514;29;20125;-93
2022/03/17 08:44:31;;;;;;;107.10;50.95;;;;;;;16.37;32.98;94093.78;4853961;29;20045;-92
2022/03/17 08:49:42;;;;;;;112.78;52.45;;;;;;;16.38;32.88;94100.75;4893051;29;20055;-91
2022/03/17 08:52:08;;;;;;;96.25;45.08;;;;;;;16.41;33.58;94104.50;4853337;29;20041;-91
2022/03/17 08:54:35;;;;;;;136.40;61.97;;;;;;;16.42;33.24;94100.53;4852572;29;20116;-92
2022/03/17 08:57:00;;;;;;;120.15;55.30;;;;;;;16.43;32.81;94102.78;4875228;29;20081;-94
2022/03/17 08:59:31;;;;;;;113.47;54.63;;;;;;;16.42;33.34;94108.72;4855342;29;20100;-94
2022/03/17 09:01:58;;;;;;;118.43;48.30;;;;;;;16.44;33.86;94104.28;4863688;29;20041;-91
2022/03/17 09:04:24;;;;;;;100.47;50.85;;;;;;;16.46;33.32;94114.69;4864035;29;20073;-92
2022/03/17 09:06:49;;;;;;;121.25;51.05;;;;;;;16.46;33.18;94109.25;4865622;29;20292;-92
2022/03/17 09:09:14;;;;;;;100.28;52.10;;;;;;;16.50;32.91;94101.59;4861256;29;20044;-92
2022/03/17 09:11:40;;;;;;;107.13;53.00;;;;;;;16.51;33.14;94105.81;4895619;29;20052;-88
2022/03/17 09:14:07;;;;;;;100.22;51.63;;;;;;;16.49;32.96;94110.25;4864224;29;20032;-88
2022/03/17 09:16:36;;;;;;;106.28;50.75;;;;;;;16.51;32.88;94116.00;4863151;29;20040;-88
2022/03/17 09:19:01;;;;;;;120.72;56.33;;;;;;;16.54;33.02;94115.78;4868685;29;20044;-89
2022/03/17 09:21:27;;;;;;;116.75;58.15;;;;;;;16.55;33.09;94106.34;4905187;29;20029;-90
2022/03/17 09:23:53;;;;;;;126.75;59.10;;;;;;;16.53;32.90;94113.53;4864990;29;20069;-90
2022/03/17 09:26:19;;;;;;;123.40;61.38;;;;;;;16.54;32.99;94110.31;4894575;29;20040;-91
2022/03/17 09:28:44;;;;;;;106.10;52.00;;;;;;;16.55;33.28;94106.34;4872088;29;20037;-89
2022/03/17 09:31:09;;;;;;;121.13;60.35;;;;;;;16.56;32.75;94112.56;4887972;29;20043;-93
2022/03/17 09:33:36;;;;;;;120.65;61.63;;;;;;;16.55;33.06;94106.34;4880212;29;20041;-89
2022/03/17 09:36:01;;;;;;;108.60;57.75;;;;;;;16.54;33.28;94117.75;4875127;29;20048;-92
2022/03/17 09:38:27;;;;;;;116.28;58.85;;;;;;;16.55;33.48;94111.81;4881402;29;20402;-92
2022/03/17 09:40:52;;;;;;;126.10;59.33;;;;;;;16.56;33.21;94118.78;4877752;29;20509;-92
2022/03/17 09:43:28;;;;;;;123.95;58.83;;;;;;;16.58;32.94;94115.56;4884759;29;20037;-93
2022/03/17 09:45:55;;;;;;;144.18;58.42;;;;;;;16.58;33.13;94118.31;4869646;29;20037;-91
2022/03/17 09:48:21;;;;;;;137.40;62.85;;;;;;;16.55;33.16;94111.81;4861985;29;20033;-92
2022/03/17 09:50:47;;;;;;;116.35;58.83;;;;;;;16.56;32.93;94110.59;4888483;29;20037;-94
2022/03/17 09:53:13;;;;;;;147.25;66.10;;;;;;;16.58;32.99;94115.56;4883381;29;20032;-93
2022/03/17 09:55:43;;;;;;;137.82;63.05;;;;;;;16.59;33.31;94128.00;4901790;29;20156;-91
2022/03/17 09:58:09;;;;;;;191.95;69.07;;;;;;;16.60;32.94;94116.59;4845624;29;20501;-91
2022/03/17 10:00:53;;;;;;;165.80;67.05;;;;;;;16.61;33.42;94129.00;4889229;29;20053;-90
2022/03/17 10:03:25;;;;;;;234.95;108.45;;;;;;;16.63;33.44;94137.50;4886050;29;20064;-89
2022/03/17 10:05:51;;;;;;;301.25;143.90;;;;;;;16.65;33.19;94126.09;4899429;29;20065;-92
2022/03/17 10:08:18;;;;;;;237.68;127.15;;;;;;;16.64;33.15;94140.97;4893626;29;20057;-87
2022/03/17 10:10:43;;;;;;;174.55;91.40;;;;;;;16.66;33.51;94143.97;4895603;29;20104;-88
2022/03/17 10:13:19;;;;;;;201.75;96.38;;;;;;;16.64;33.13;94135.53;4901572;29;20165;-88
2022/03/17 10:15:46;;;;;;;172.23;87.22;;;;;;;16.68;33.05;94139.50;4880489;29;20131;-87
2022/03/17 10:18:23;;;;;;;219.82;102.93;;;;;;;16.68;33.30;94136.03;4895851;29;20136;-88
2022/03/17 10:21:06;;;;;;;211.15;99.75;;;;;;;16.70;33.03;94131.59;4899796;29;20045;-89
2022/03/17 10:23:31;;;;;;;184.30;93.65;;;;;;;16.70;33.33;94130.84;4864009;29;20104;-88
2022/03/17 10:26:06;;;;;;;217.63;110.40;;;;;;;16.73;33.37;94138.81;4879421;29;20045;-92
2022/03/17 10:28:33;;;;;;;205.90;112.47;;;;;;;16.73;33.19;94136.09;4855544;29;20056;-90
2022/03/17 10:31:07;;;;;;;207.95;105.63;;;;;;;16.73;32.99;94144.28;4866271;29;20052;-90
2022/03/17 10:33:32;;;;;;;220.07;110.00;;;;;;;16.75;33.10;94141.81;4878763;29;20072;-89
2022/03/17 10:36:20;;;;;;;181.40;96.68;;;;;;;16.74;33.55;94147.75;4887861;29;20080;-92
2022/03/17 10:38:46;;;;;;;180.70;93.65;;;;;;;16.75;33.58;94150.00;4856105;29;20116;-91
2022/03/17 10:41:12;;;;;;;120.45;71.05;;;;;;;16.77;34.01;94158.47;4894522;29;20045;-93
2022/03/17 10:43:46;;;;;;;140.20;79.55;;;;;;;16.76;33.37;94137.09;4910398;29;20049;-92
2022/03/17 10:46:16;;;;;;;122.93;70.95;;;;;;;16.79;33.38;94145.09;4896781;29;20061;-91
2022/03/17 10:49:00;;;;;;;134.55;72.85;;;;;;;16.82;33.29;94151.56;4893736;29;20507;-93
2022/03/17 10:51:40;;;;;;;102.75;62.47;;;;;;;16.81;33.80;94147.34;4865014;29;20121;-93
2022/03/17 10:54:20;;;;;;;110.63;71.63;;;;;;;16.84;33.30;94145.63;4861663;29;20136;-92
2022/03/17 10:56:59;;;;;;;135.73;70.38;;;;;;;16.84;33.99;94143.66;4844547;29;20383;-91
2022/03/17 10:59:43;;;;;;;121.07;69.18;;;;;;;16.82;33.40;94146.13;4860654;29;20042;-92
2022/03/17 11:02:10;;;;;;;171.70;95.55;;;;;;;16.86;33.37;94151.38;4859256;29;20583;-89
2022/03/17 11:04:40;;;;;;;386.65;227.05;;;;;;;16.91;34.03;94150.66;4855134;29;20045;-94
2022/03/17 11:07:08;;;;;;;310.60;177.82;;;;;;;16.95;33.87;94151.94;4874434;29;20057;-92
2022/03/17 11:09:36;;;;;;;221.32;128.23;;;;;;;16.96;33.28;94147.22;4920637;29;20092;-92
2022/03/17 11:12:02;;;;;;;202.52;118.07;;;;;;;16.95;33.30;94145.72;4895395;29;20081;-91
2022/03/17 11:14:29;;;;;;;185.20;101.55;;;;;;;16.98;33.45;94152.94;4869663;29;20156;-92
2022/03/17 11:16:57;;;;;;;173.80;91.03;;;;;;;16.98;33.88;94155.69;4837576;29;20080;-91
2022/03/17 11:19:23;;;;;;;152.43;87.25;;;;;;;16.99;33.41;94144.28;4892293;29;20108;-92
2022/03/17 11:22:08;;;;;;;106.05;61.25;;;;;;;16.96;32.48;94144.50;4864627;29;20048;-89
2022/03/17 11:24:34;;;;;;;92.88;52.67;;;;;;;16.91;30.81;94145.94;4877250;29;20053;-89
2022/03/17 11:27:10;;;;;;;101.80;51.08;;;;;;;16.88;30.77;94149.66;4862510;29;20038;-90
2022/03/17 11:29:46;;;;;;;353.67;241.38;;;;;;;16.88;30.65;94141.47;4858389;29;20093;-90
2022/03/17 11:32:29;;;;;;;86.20;46.70;;;;;;;16.91;31.50;94147.91;4876921;29;20125;-90
2022/03/17 11:35:07;;;;;;;81.18;47.00;;;;;;;16.93;31.71;94151.66;4874986;29;20065;-91
2022/03/17 11:37:32;;;;;;;85.60;46.63;;;;;;;16.95;31.56;94151.19;4843377;29;20049;-90
2022/03/17 11:40:11;;;;;;;80.00;44.78;;;;;;;16.96;32.14;94147.22;4843664;29;20154;-89